<?xml version="1.0" encoding="UTF-8" standalone="no" ?>
<gpx xmlns="http://www.topografix.com/GPX/1/1" xmlns:xsi="http://www.w3.org/2001/XMLSchema-instance" xsi:schemaLocation="http://www.topografix.com/GPX/1/1 http://www.topografix.com/GPX/1/1/gpx.xsd" version="1.1" creator="VisuGPX - https://www.visugpx.com">
  <metadata>
    <name>Batz_leCroisic_12km</name>
    <desc><![CDATA[gnerando idor: 14411999_14484932]]></desc>
  </metadata>
  <trk>
    <name><![CDATA[Batz_LeCroisic_12km-14411999]]></name>
    <extensions>
      <line xmlns="http://www.topografix.com/GPX/gpx_style/0/2">
        <color>00FF00</color>
        <width>4</width>
      </line>
    </extensions>
    <trkseg>
      <trkpt lat="47.28064" lon="-2.48042">
        <ele>6</ele>
        <time>2023-10-30T08:35:12Z</time>
      </trkpt>
      <trkpt lat="47.2805" lon="-2.47925">
        <ele>7</ele>
        <time>2023-10-30T08:37:00Z</time>
      </trkpt>
      <trkpt lat="47.27408" lon="-2.48118">
        <ele>10</ele>
        <time>2023-10-30T08:51:34Z</time>
      </trkpt>
      <trkpt lat="47.2748" lon="-2.48684">
        <ele>4</ele>
        <time>2023-10-30T09:00:15Z</time>
      </trkpt>
      <trkpt lat="47.27556" lon="-2.48688">
        <ele>7</ele>
        <time>2023-10-30T09:01:57Z</time>
      </trkpt>
      <trkpt lat="47.27501" lon="-2.48804">
        <ele>5</ele>
        <time>2023-10-30T09:04:05Z</time>
      </trkpt>
      <trkpt lat="47.27571" lon="-2.49221">
        <ele>6</ele>
        <time>2023-10-30T09:10:34Z</time>
      </trkpt>
      <trkpt lat="47.27865" lon="-2.49264">
        <ele>7</ele>
        <time>2023-10-30T09:17:08Z</time>
      </trkpt>
      <trkpt lat="47.27806" lon="-2.49431">
        <ele>7</ele>
        <time>2023-10-30T09:19:59Z</time>
      </trkpt>
      <trkpt lat="47.27993" lon="-2.4968">
        <ele>7</ele>
        <time>2023-10-30T09:25:35Z</time>
      </trkpt>
      <trkpt lat="47.28109" lon="-2.49607">
        <ele>7</ele>
        <time>2023-10-30T09:28:23Z</time>
      </trkpt>
      <trkpt lat="47.28191" lon="-2.50139">
        <ele>7</ele>
        <time>2023-10-30T09:36:37Z</time>
      </trkpt>
      <trkpt lat="47.2829" lon="-2.50319">
        <ele>3</ele>
        <time>2023-10-30T09:40:07Z</time>
      </trkpt>
      <trkpt lat="47.28194" lon="-2.50744">
        <ele>3</ele>
        <time>2023-10-30T09:46:52Z</time>
      </trkpt>
      <trkpt lat="47.28234" lon="-2.51062">
        <ele>4</ele>
        <time>2023-10-30T09:51:45Z</time>
      </trkpt>
      <trkpt lat="47.28421" lon="-2.51293">
        <ele>7</ele>
        <time>2023-10-30T09:57:11Z</time>
      </trkpt>
      <trkpt lat="47.28511" lon="-2.51529">
        <ele>5</ele>
        <time>2023-10-30T10:01:16Z</time>
      </trkpt>
      <trkpt lat="47.28546" lon="-2.51817">
        <ele>3</ele>
        <time>2023-10-30T10:05:41Z</time>
      </trkpt>
      <trkpt lat="47.28636" lon="-2.521">
        <ele>6</ele>
        <time>2023-10-30T10:10:24Z</time>
      </trkpt>
      <trkpt lat="47.28622" lon="-2.52208">
        <ele>3</ele>
        <time>2023-10-30T10:12:03Z</time>
      </trkpt>
      <trkpt lat="47.28703" lon="-2.52306">
        <ele>6</ele>
        <time>2023-10-30T10:14:23Z</time>
      </trkpt>
      <trkpt lat="47.28689" lon="-2.52632">
        <ele>4</ele>
        <time>2023-10-30T10:19:19Z</time>
      </trkpt>
      <trkpt lat="47.28718" lon="-2.53074">
        <ele>7</ele>
        <time>2023-10-30T10:26:01Z</time>
      </trkpt>
      <trkpt lat="47.28817" lon="-2.53268">
        <ele>9</ele>
        <time>2023-10-30T10:29:40Z</time>
      </trkpt>
      <trkpt lat="47.28881" lon="-2.53624">
        <ele>7</ele>
        <time>2023-10-30T10:35:14Z</time>
      </trkpt>
      <trkpt lat="47.29055" lon="-2.54362">
        <ele>3</ele>
        <time>2023-10-30T10:47:01Z</time>
      </trkpt>
      <trkpt lat="47.29006" lon="-2.54482">
        <ele>3</ele>
        <time>2023-10-30T10:49:08Z</time>
      </trkpt>
      <trkpt lat="47.29044" lon="-2.54564">
        <ele>2</ele>
        <time>2023-10-30T10:50:38Z</time>
      </trkpt>
      <trkpt lat="47.29084" lon="-2.54555">
        <ele>3</ele>
        <time>2023-10-30T10:51:32Z</time>
      </trkpt>
      <trkpt lat="47.29245" lon="-2.54727">
        <ele>2</ele>
        <time>2023-10-30T10:55:57Z</time>
      </trkpt>
      <trkpt lat="47.29472" lon="-2.54705">
        <ele>2</ele>
        <time>2023-10-30T11:01:01Z</time>
      </trkpt>
      <trkpt lat="47.298" lon="-2.54473">
        <ele>3</ele>
        <time>2023-10-30T11:09:06Z</time>
      </trkpt>
      <trkpt lat="47.2987" lon="-2.54332">
        <ele>3</ele>
        <time>2023-10-30T11:11:44Z</time>
      </trkpt>
      <trkpt lat="47.29917" lon="-2.5407">
        <ele>2</ele>
        <time>2023-10-30T11:15:49Z</time>
      </trkpt>
      <trkpt lat="47.29969" lon="-2.53954">
        <ele>1</ele>
        <time>2023-10-30T11:17:55Z</time>
      </trkpt>
      <trkpt lat="47.2992" lon="-2.53649">
        <ele>2</ele>
        <time>2023-10-30T11:22:39Z</time>
      </trkpt>
      <trkpt lat="47.30089" lon="-2.53426">
        <ele>2</ele>
        <time>2023-10-30T11:27:42Z</time>
      </trkpt>
      <trkpt lat="47.30051" lon="-2.53268">
        <ele>3</ele>
        <time>2023-10-30T11:30:13Z</time>
      </trkpt>
      <trkpt lat="47.30048" lon="-2.53044">
        <ele>2</ele>
        <time>2023-10-30T11:33:36Z</time>
      </trkpt>
      <trkpt lat="47.30109" lon="-2.52718">
        <ele>4</ele>
        <time>2023-10-30T11:38:42Z</time>
      </trkpt>
      <trkpt lat="47.30042" lon="-2.52105">
        <ele>5</ele>
        <time>2023-10-30T11:48:04Z</time>
      </trkpt>
      <trkpt lat="47.30097" lon="-2.52057">
        <ele>3</ele>
        <time>2023-10-30T11:49:29Z</time>
      </trkpt>
      <trkpt lat="47.29969" lon="-2.51907">
        <ele>2</ele>
        <time>2023-10-30T11:53:07Z</time>
      </trkpt>
      <trkpt lat="47.29961" lon="-2.51834">
        <ele>3</ele>
        <time>2023-10-30T11:54:14Z</time>
      </trkpt>
      <trkpt lat="47.30004" lon="-2.518">
        <ele>1</ele>
        <time>2023-10-30T11:55:19Z</time>
      </trkpt>
      <trkpt lat="47.2992" lon="-2.51654">
        <ele>2</ele>
        <time>2023-10-30T11:58:13Z</time>
      </trkpt>
      <trkpt lat="47.29862" lon="-2.51478">
        <ele>2</ele>
        <time>2023-10-30T12:01:10Z</time>
      </trkpt>
      <trkpt lat="47.2955" lon="-2.51306">
        <ele>6</ele>
        <time>2023-10-30T12:08:34Z</time>
      </trkpt>
      <trkpt lat="47.29498" lon="-2.5113">
        <ele>6</ele>
        <time>2023-10-30T12:11:28Z</time>
      </trkpt>
      <trkpt lat="47.29378" lon="-2.50942">
        <ele>3</ele>
        <time>2023-10-30T12:15:22Z</time>
      </trkpt>
      <trkpt lat="47.29195" lon="-2.5083">
        <ele>5</ele>
        <time>2023-10-30T12:19:46Z</time>
      </trkpt>
      <trkpt lat="47.29201" lon="-2.50525">
        <ele>5</ele>
        <time>2023-10-30T12:24:22Z</time>
      </trkpt>
      <trkpt lat="47.29125" lon="-2.50474">
        <ele>4</ele>
        <time>2023-10-30T12:26:14Z</time>
      </trkpt>
      <trkpt lat="47.2905" lon="-2.5077">
        <ele>6</ele>
        <time>2023-10-30T12:31:00Z</time>
      </trkpt>
      <trkpt lat="47.28837" lon="-2.5062">
        <ele>4</ele>
        <time>2023-10-30T12:36:15Z</time>
      </trkpt>
    </trkseg>
  </trk>
</gpx>